EZS5891 LFSB-LKPR
Flight info
| Callsign | EZS5891 |
|---|---|
| Flight time | N/A |
| Altitude | 35000 |
| Route | DCT ELBEG Y715 AMRUP N491 TRA DCT DEGES DCT GAMSA N871 XEBIX DCT TULSI DCT MEBEK DCT NENUM Z39 DOLUP DCT APRAQ APRAQ2T |
| Aircraft | A320/M-SDE3FGHIRWY/LB1 |
Departure
| Time | 2026-05-05 15:07 |
|---|---|
| Airport | EuroAirport Basel–Mulhouse–Freiburg (LFSB) |
Arrival
| Time | N/A |
|---|---|
| Airport | Václav Havel Airport Prague (LKPR) |
| Time | Latitude | Longitude | Altitude | Speed | Heading |
|---|---|---|---|---|---|
| 2026-05-05 15:00 | 47.59765 | 7.53104 | 896 ft | 0 kts | 325° |
| 2026-05-05 15:00 | 47.59772 | 7.53094 | 896 ft | 5 kts | 316° |
| 2026-05-05 15:01 | 47.59768 | 7.53040 | 896 ft | 6 kts | 227° |
| 2026-05-05 15:01 | 47.59736 | 7.53028 | 896 ft | 4 kts | 184° |
| 2026-05-05 15:01 | 47.59703 | 7.53019 | 896 ft | 8 kts | 195° |
| 2026-05-05 15:01 | 47.59653 | 7.52953 | 896 ft | 10 kts | 241° |
| 2026-05-05 15:02 | 47.59625 | 7.52865 | 896 ft | 9 kts | 245° |
| 2026-05-05 15:02 | 47.59579 | 7.52811 | 896 ft | 8 kts | 180° |
| 2026-05-05 15:02 | 47.59509 | 7.52854 | 896 ft | 14 kts | 155° |
| 2026-05-05 15:02 | 47.59430 | 7.52909 | 896 ft | 12 kts | 155° |
| 2026-05-05 15:03 | 47.59360 | 7.52957 | 896 ft | 10 kts | 155° |
| 2026-05-05 15:03 | 47.59301 | 7.52998 | 897 ft | 9 kts | 155° |
| 2026-05-05 15:03 | 47.59252 | 7.53032 | 897 ft | 7 kts | 155° |
| 2026-05-05 15:03 | 47.59189 | 7.53093 | 896 ft | 13 kts | 122° |
| 2026-05-05 15:04 | 47.59175 | 7.53214 | 896 ft | 11 kts | 115° |
| 2026-05-05 15:04 | 47.59146 | 7.53304 | 896 ft | 10 kts | 82° |
| 2026-05-05 15:04 | 47.59169 | 7.53447 | 896 ft | 17 kts | 77° |
| 2026-05-05 15:04 | 47.59194 | 7.53607 | 895 ft | 15 kts | 77° |
| 2026-05-05 15:05 | 47.59238 | 7.53880 | 892 ft | 12 kts | 76° |
| 2026-05-05 15:05 | 47.59228 | 7.53993 | 891 ft | 12 kts | 122° |
| 2026-05-05 15:05 | 47.59167 | 7.54030 | 888 ft | 11 kts | 229° |
| 2026-05-05 15:06 | 47.59146 | 7.53929 | 888 ft | 8 kts | 257° |
| 2026-05-05 15:06 | 47.59129 | 7.53823 | 892 ft | 22 kts | 256° |
| 2026-05-05 15:06 | 47.59027 | 7.53171 | 897 ft | 105 kts | 257° |
| 2026-05-05 15:06 | 47.58810 | 7.51817 | 1086 ft | 148 kts | 261° |
| 2026-05-05 15:07 | 47.58581 | 7.50342 | 1791 ft | 148 kts | 257° |
| 2026-05-05 15:07 | 47.58344 | 7.48814 | 2460 ft | 156 kts | 255° |
| 2026-05-05 15:07 | 47.58102 | 7.47223 | 3195 ft | 161 kts | 255° |
| 2026-05-05 15:07 | 47.57836 | 7.45564 | 3925 ft | 168 kts | 253° |
| 2026-05-05 15:08 | 47.57593 | 7.43923 | 4630 ft | 159 kts | 255° |
| 2026-05-05 15:08 | 47.57489 | 7.42206 | 4866 ft | 182 kts | 277° |
| 2026-05-05 15:08 | 47.58240 | 7.40547 | 5029 ft | 215 kts | 322° |
| 2026-05-05 15:08 | 47.59770 | 7.39979 | 5201 ft | 252 kts | 4° |
| 2026-05-05 15:09 | 47.61477 | 7.41053 | 5509 ft | 280 kts | 42° |
| 2026-05-05 15:09 | 47.62578 | 7.43485 | 5996 ft | 292 kts | 72° |
| 2026-05-05 15:09 | 47.63118 | 7.46396 | 6790 ft | 295 kts | 81° |
| 2026-05-05 15:09 | 47.63531 | 7.49352 | 7636 ft | 298 kts | 81° |
| 2026-05-05 15:10 | 47.63957 | 7.52428 | 8458 ft | 302 kts | 81° |
| 2026-05-05 15:10 | 47.64393 | 7.55460 | 9234 ft | 307 kts | 78° |
| 2026-05-05 15:10 | 47.65040 | 7.58509 | 9959 ft | 314 kts | 72° |
| 2026-05-05 15:10 | 47.65861 | 7.61610 | 10319 ft | 334 kts | 69° |
| 2026-05-05 15:11 | 47.66804 | 7.64897 | 10522 ft | 358 kts | 68° |
| 2026-05-05 15:11 | 47.67824 | 7.68391 | 10750 ft | 378 kts | 68° |
| 2026-05-05 15:11 | 47.68865 | 7.72015 | 11326 ft | 385 kts | 69° |
| 2026-05-05 15:11 | 47.69899 | 7.75704 | 11995 ft | 389 kts | 69° |
| 2026-05-05 15:12 | 47.70898 | 7.79454 | 12693 ft | 392 kts | 70° |
| 2026-05-05 15:12 | 47.71863 | 7.83251 | 13358 ft | 395 kts | 71° |
| 2026-05-05 15:12 | 47.72818 | 7.87107 | 13972 ft | 399 kts | 71° |
| 2026-05-05 15:12 | 47.73775 | 7.91004 | 14578 ft | 403 kts | 71° |
| 2026-05-05 15:13 | 47.74738 | 7.94920 | 15211 ft | 405 kts | 71° |
| 2026-05-05 15:13 | 47.75712 | 7.98864 | 15850 ft | 407 kts | 71° |
| 2026-05-05 15:13 | 47.76555 | 8.02880 | 16466 ft | 408 kts | 80° |
| 2026-05-05 15:13 | 47.76901 | 8.07063 | 17065 ft | 408 kts | 91° |
| 2026-05-05 15:14 | 47.76718 | 8.11269 | 17678 ft | 407 kts | 102° |
| 2026-05-05 15:14 | 47.76314 | 8.13984 | 18084 ft | 407 kts | 109° |
| 2026-05-05 15:14 | 47.75378 | 8.17953 | 18636 ft | 407 kts | 113° |
| 2026-05-05 15:14 | 47.74394 | 8.21911 | 19178 ft | 409 kts | 113° |
| 2026-05-05 15:15 | 47.73404 | 8.25880 | 19711 ft | 411 kts | 113° |
| 2026-05-05 15:15 | 47.72407 | 8.29865 | 20233 ft | 413 kts | 113° |
| 2026-05-05 15:15 | 47.71402 | 8.33873 | 20747 ft | 415 kts | 113° |
| 2026-05-05 15:15 | 47.70395 | 8.37885 | 21231 ft | 417 kts | 113° |
| 2026-05-05 15:16 | 47.69377 | 8.41938 | 21678 ft | 420 kts | 113° |
| 2026-05-05 15:16 | 47.68169 | 8.45880 | 22117 ft | 420 kts | 120° |
| 2026-05-05 15:16 | 47.66798 | 8.49732 | 22561 ft | 422 kts | 120° |
| 2026-05-05 15:16 | 47.65421 | 8.53586 | 23002 ft | 425 kts | 120° |
| 2026-05-05 15:17 | 47.64028 | 8.57467 | 23423 ft | 427 kts | 120° |
| 2026-05-05 15:17 | 47.62629 | 8.61359 | 23777 ft | 429 kts | 120° |
| 2026-05-05 15:17 | 47.61220 | 8.65268 | 24120 ft | 431 kts | 120° |
| 2026-05-05 15:17 | 47.59803 | 8.69196 | 24463 ft | 433 kts | 120° |
| 2026-05-05 15:18 | 47.58382 | 8.73136 | 24800 ft | 434 kts | 120° |
| 2026-05-05 15:18 | 47.56957 | 8.77085 | 25122 ft | 436 kts | 121° |
| 2026-05-05 15:18 | 47.55523 | 8.81055 | 25412 ft | 438 kts | 121° |
| 2026-05-05 15:18 | 47.54083 | 8.85038 | 25704 ft | 441 kts | 121° |
| 2026-05-05 15:19 | 47.52628 | 8.89043 | 26003 ft | 443 kts | 121° |
| 2026-05-05 15:19 | 47.51164 | 8.93061 | 26303 ft | 444 kts | 121° |
| 2026-05-05 15:19 | 47.49690 | 8.97102 | 26602 ft | 446 kts | 121° |
| 2026-05-05 15:19 | 47.48217 | 9.01148 | 26889 ft | 448 kts | 121° |
| 2026-05-05 15:20 | 47.46739 | 9.05201 | 27177 ft | 449 kts | 121° |
| 2026-05-05 15:20 | 47.45254 | 9.09263 | 27455 ft | 450 kts | 121° |
| 2026-05-05 15:20 | 47.43760 | 9.13341 | 27713 ft | 452 kts | 121° |
| 2026-05-05 15:20 | 47.42436 | 9.17593 | 27880 ft | 460 kts | 113° |
| 2026-05-05 15:21 | 47.41571 | 9.22176 | 28044 ft | 467 kts | 104° |
| 2026-05-05 15:21 | 47.41202 | 9.26967 | 28261 ft | 474 kts | 95° |
| 2026-05-05 15:21 | 47.41167 | 9.31844 | 28517 ft | 475 kts | 94° |
| 2026-05-05 15:21 | 47.41134 | 9.36719 | 28839 ft | 475 kts | 94° |
| 2026-05-05 15:22 | 47.41093 | 9.41581 | 29190 ft | 474 kts | 94° |
| 2026-05-05 15:22 | 47.41048 | 9.46438 | 29513 ft | 473 kts | 94° |
| 2026-05-05 15:22 | 47.41000 | 9.51289 | 29906 ft | 470 kts | 94° |
| 2026-05-05 15:22 | 47.40948 | 9.56096 | 30283 ft | 467 kts | 95° |
| 2026-05-05 15:23 | 47.40895 | 9.60896 | 30541 ft | 467 kts | 95° |
| 2026-05-05 15:23 | 47.40731 | 9.65672 | 30753 ft | 466 kts | 101° |
| 2026-05-05 15:23 | 47.40183 | 9.70356 | 30969 ft | 464 kts | 105° |
| 2026-05-05 15:23 | 47.39570 | 9.75037 | 31191 ft | 465 kts | 105° |
| 2026-05-05 15:24 | 47.38956 | 9.79733 | 31431 ft | 466 kts | 105° |
| 2026-05-05 15:24 | 47.38343 | 9.84427 | 31696 ft | 466 kts | 105° |
| 2026-05-05 15:24 | 47.37726 | 9.89129 | 31952 ft | 467 kts | 105° |
| 2026-05-05 15:24 | 47.37108 | 9.93830 | 32208 ft | 467 kts | 106° |
| 2026-05-05 15:25 | 47.36487 | 9.98551 | 32360 ft | 471 kts | 106° |
| 2026-05-05 15:25 | 47.35862 | 10.03304 | 32524 ft | 473 kts | 106° |
| 2026-05-05 15:25 | 47.35231 | 10.08086 | 32687 ft | 476 kts | 106° |
| 2026-05-05 15:25 | 47.34591 | 10.12877 | 32940 ft | 476 kts | 107° |
| 2026-05-05 15:26 | 47.33956 | 10.17609 | 33204 ft | 477 kts | 107° |
| 2026-05-05 15:26 | 47.33527 | 10.22490 | 33494 ft | 483 kts | 97° |
| 2026-05-05 15:26 | 47.33662 | 10.27465 | 33801 ft | 490 kts | 86° |
| 2026-05-05 15:26 | 47.34402 | 10.32395 | 34100 ft | 494 kts | 75° |
| 2026-05-05 15:27 | 47.35724 | 10.37082 | 34378 ft | 496 kts | 64° |
| 2026-05-05 15:27 | 47.37451 | 10.41491 | 34639 ft | 496 kts | 62° |
| 2026-05-05 15:27 | 47.39188 | 10.45881 | 34787 ft | 495 kts | 63° |
| 2026-05-05 15:28 | 47.41743 | 10.55268 | 34859 ft | 493 kts | 73° |
| 2026-05-05 15:28 | 47.43972 | 10.64868 | 34857 ft | 494 kts | 73° |
| 2026-05-05 15:29 | 47.46237 | 10.74450 | 34842 ft | 493 kts | 73° |
| 2026-05-05 15:29 | 47.48501 | 10.84025 | 34843 ft | 494 kts | 73° |
| 2026-05-05 15:30 | 47.50741 | 10.93624 | 34835 ft | 493 kts | 73° |
| 2026-05-05 15:30 | 47.52959 | 11.03215 | 34841 ft | 492 kts | 73° |
| 2026-05-05 15:31 | 47.55170 | 11.12804 | 34833 ft | 492 kts | 73° |
| 2026-05-05 15:31 | 47.57370 | 11.22384 | 34832 ft | 491 kts | 73° |
| 2026-05-05 15:32 | 47.59552 | 11.31904 | 34821 ft | 491 kts | 73° |
| 2026-05-05 15:32 | 47.61740 | 11.41485 | 34796 ft | 490 kts | 73° |
| 2026-05-05 15:33 | 47.63915 | 11.51072 | 34792 ft | 490 kts | 73° |
| 2026-05-05 15:33 | 47.66069 | 11.60641 | 34815 ft | 489 kts | 73° |
| 2026-05-05 15:34 | 47.68218 | 11.70206 | 34810 ft | 488 kts | 73° |
| 2026-05-05 15:34 | 47.71148 | 11.79280 | 34808 ft | 489 kts | 56° |
| 2026-05-05 15:35 | 47.75660 | 11.86817 | 34774 ft | 489 kts | 43° |
| 2026-05-05 15:35 | 47.80531 | 11.93848 | 34801 ft | 487 kts | 44° |
| 2026-05-05 15:36 | 47.85376 | 12.00893 | 34804 ft | 486 kts | 44° |
| 2026-05-05 15:36 | 47.90207 | 12.07944 | 34802 ft | 486 kts | 44° |
| 2026-05-05 15:37 | 47.95033 | 12.14997 | 34796 ft | 485 kts | 44° |
| 2026-05-05 15:37 | 47.99852 | 12.22050 | 34787 ft | 485 kts | 44° |
| 2026-05-05 15:38 | 48.04630 | 12.29071 | 34795 ft | 484 kts | 45° |
| 2026-05-05 15:38 | 48.09412 | 12.36133 | 34780 ft | 484 kts | 45° |
| 2026-05-05 15:39 | 48.14198 | 12.43203 | 34773 ft | 483 kts | 45° |
| 2026-05-05 15:39 | 48.18975 | 12.50275 | 34768 ft | 483 kts | 45° |
| 2026-05-05 15:40 | 48.23795 | 12.57291 | 34761 ft | 482 kts | 39° |
| 2026-05-05 15:40 | 48.28974 | 12.63706 | 34752 ft | 482 kts | 39° |
| 2026-05-05 15:41 | 48.34148 | 12.70132 | 34749 ft | 482 kts | 39° |
| 2026-05-05 15:41 | 48.39316 | 12.76561 | 34760 ft | 482 kts | 39° |
| 2026-05-05 15:42 | 48.44473 | 12.82997 | 34763 ft | 481 kts | 39° |
| 2026-05-05 15:42 | 48.49627 | 12.89444 | 34757 ft | 481 kts | 39° |
| 2026-05-05 15:43 | 48.54897 | 12.95626 | 34751 ft | 480 kts | 31° |
| 2026-05-05 15:43 | 48.60693 | 13.00626 | 34761 ft | 479 kts | 29° |
| 2026-05-05 15:44 | 48.66481 | 13.05592 | 34762 ft | 478 kts | 29° |
| 2026-05-05 15:44 | 48.72263 | 13.10577 | 34762 ft | 478 kts | 29° |
| 2026-05-05 15:45 | 48.78035 | 13.15567 | 34765 ft | 478 kts | 29° |
| 2026-05-05 15:45 | 48.83805 | 13.20563 | 34761 ft | 477 kts | 29° |
| 2026-05-05 15:46 | 48.89663 | 13.25277 | 34740 ft | 476 kts | 21° |
| 2026-05-05 15:46 | 48.95769 | 13.29153 | 34753 ft | 476 kts | 21° |
| 2026-05-05 15:47 | 49.01838 | 13.33021 | 34766 ft | 475 kts | 21° |
| 2026-05-05 15:47 | 49.03900 | 13.34335 | 34626 ft | 475 kts | 21° |
| 2026-05-05 15:47 | 49.07917 | 13.36894 | 33430 ft | 470 kts | 21° |
| 2026-05-05 15:47 | 49.10848 | 13.39026 | 32454 ft | 463 kts | 30° |
| 2026-05-05 15:48 | 49.13509 | 13.41702 | 31570 ft | 457 kts | 38° |
| 2026-05-05 15:48 | 49.15941 | 13.44875 | 30596 ft | 463 kts | 42° |
| 2026-05-05 15:48 | 49.18361 | 13.48179 | 29541 ft | 470 kts | 42° |
| 2026-05-05 15:48 | 49.20817 | 13.51536 | 28424 ft | 475 kts | 42° |
| 2026-05-05 15:49 | 49.23294 | 13.54919 | 27292 ft | 480 kts | 42° |
| 2026-05-05 15:49 | 49.25796 | 13.58333 | 26214 ft | 482 kts | 43° |
| 2026-05-05 15:49 | 49.28273 | 13.61713 | 25586 ft | 474 kts | 43° |
| 2026-05-05 15:49 | 49.30733 | 13.65072 | 24793 ft | 472 kts | 43° |
| 2026-05-05 15:50 | 49.33174 | 13.68405 | 24033 ft | 469 kts | 43° |
| 2026-05-05 15:50 | 49.35601 | 13.71731 | 23274 ft | 467 kts | 43° |
| 2026-05-05 15:50 | 49.38008 | 13.75043 | 22489 ft | 463 kts | 43° |
| 2026-05-05 15:50 | 49.40388 | 13.78326 | 21798 ft | 457 kts | 43° |
| 2026-05-05 15:51 | 49.42744 | 13.81581 | 21124 ft | 453 kts | 43° |
| 2026-05-05 15:51 | 49.45076 | 13.84803 | 20468 ft | 449 kts | 43° |
| 2026-05-05 15:51 | 49.47388 | 13.88003 | 19818 ft | 445 kts | 43° |
| 2026-05-05 15:51 | 49.49676 | 13.91173 | 19204 ft | 441 kts | 43° |
| 2026-05-05 15:52 | 49.51952 | 13.94326 | 18601 ft | 438 kts | 43° |
| 2026-05-05 15:52 | 49.54210 | 13.97452 | 18017 ft | 435 kts | 43° |
| 2026-05-05 15:52 | 49.56450 | 14.00556 | 17417 ft | 431 kts | 43° |
| 2026-05-05 15:52 | 49.58663 | 14.03627 | 16880 ft | 426 kts | 43° |
| 2026-05-05 15:53 | 49.60847 | 14.06670 | 16345 ft | 421 kts | 43° |
| 2026-05-05 15:53 | 49.63005 | 14.09684 | 15858 ft | 416 kts | 43° |
| 2026-05-05 15:53 | 49.65140 | 14.12667 | 15338 ft | 412 kts | 43° |
| 2026-05-05 15:53 | 49.67249 | 14.15626 | 14813 ft | 408 kts | 43° |
| 2026-05-05 15:54 | 49.69339 | 14.18577 | 14258 ft | 406 kts | 43° |
| 2026-05-05 15:54 | 49.71415 | 14.21510 | 13709 ft | 403 kts | 43° |
| 2026-05-05 15:54 | 49.73479 | 14.24425 | 13085 ft | 401 kts | 43° |
| 2026-05-05 15:54 | 49.75526 | 14.27325 | 12490 ft | 397 kts | 43° |
| 2026-05-05 15:55 | 49.77555 | 14.30209 | 11875 ft | 394 kts | 43° |
| 2026-05-05 15:55 | 49.79566 | 14.33070 | 11242 ft | 391 kts | 43° |
| 2026-05-05 15:55 | 49.80931 | 14.34873 | 10835 ft | 389 kts | 36° |
| 2026-05-05 15:55 | 49.83268 | 14.36836 | 10624 ft | 375 kts | 21° |
| 2026-05-05 15:56 | 49.85732 | 14.37829 | 10500 ft | 359 kts | 7° |
| 2026-05-05 15:56 | 49.88858 | 14.37753 | 10344 ft | 340 kts | 349° |
| 2026-05-05 15:56 | 49.91094 | 14.36829 | 10216 ft | 327 kts | 341° |
| 2026-05-05 15:56 | 49.93226 | 14.35773 | 10109 ft | 316 kts | 337° |
| 2026-05-05 15:57 | 49.94548 | 14.34806 | 10017 ft | 307 kts | 327° |
| 2026-05-05 15:57 | 49.96228 | 14.32850 | 9819 ft | 297 kts | 313° |
| 2026-05-05 15:57 | 49.97557 | 14.30416 | 9560 ft | 297 kts | 305° |
| 2026-05-05 15:57 | 49.98820 | 14.27824 | 9084 ft | 299 kts | 304° |
| 2026-05-05 15:58 | 49.99792 | 14.25029 | 8773 ft | 291 kts | 286° |
| 2026-05-05 15:58 | 50.00131 | 14.21974 | 8333 ft | 288 kts | 267° |
| 2026-05-05 15:58 | 49.99848 | 14.18939 | 7766 ft | 281 kts | 250° |
| 2026-05-05 15:58 | 49.99073 | 14.16160 | 7022 ft | 281 kts | 242° |
| 2026-05-05 15:59 | 49.98236 | 14.13438 | 6299 ft | 283 kts | 243° |
| 2026-05-05 15:59 | 49.97393 | 14.10680 | 5565 ft | 283 kts | 244° |
| 2026-05-05 15:59 | 49.96657 | 14.07849 | 4944 ft | 278 kts | 260° |
| 2026-05-05 15:59 | 49.96747 | 14.05015 | 4852 ft | 253 kts | 289° |
| 2026-05-05 16:00 | 49.97594 | 14.02738 | 4797 ft | 242 kts | 316° |
| 2026-05-05 16:00 | 49.98946 | 14.01182 | 4403 ft | 242 kts | 339° |
| 2026-05-05 16:00 | 50.00528 | 14.00587 | 4304 ft | 229 kts | 1° |
| 2026-05-05 16:00 | 50.02089 | 14.00901 | 4199 ft | 225 kts | 21° |
| 2026-05-05 16:01 | 50.03442 | 14.02004 | 4011 ft | 216 kts | 39° |
| 2026-05-05 16:01 | 50.04434 | 14.03701 | 3783 ft | 211 kts | 58° |
| 2026-05-05 16:01 | 50.05078 | 14.05704 | 3524 ft | 202 kts | 64° |
| 2026-05-05 16:01 | 50.05652 | 14.07609 | 3312 ft | 186 kts | 63° |